Time;durP1;ratioP1;P1;durP2;ratioP2;P2;SDS_P1;SDS_P2;PMS_P1;PMS_P2;Temp;Humidity;BMP_temperature;BMP_pressure;BME280_temperature;BME280_humidity;BME280_pressure;Samples;Min_cycle;Max_cycle;Signal;HPM_P1;HPM_P2
2022/03/04 00:00:14;;;;;;;18.60;11.75;;;-1.70;99.90;;;;;;5052973;28;20033;-70
2022/03/04 00:02:46;;;;;;;19.73;11.43;;;-1.70;99.90;;;;;;5035566;28;20127;-71
2022/03/04 00:05:18;;;;;;;18.60;11.05;;;-1.80;99.90;;;;;;5014923;28;20412;-71
2022/03/04 00:07:50;;;;;;;21.63;12.13;;;-1.80;99.90;;;;;;5018158;28;20488;-71
2022/03/04 00:10:21;;;;;;;19.55;11.52;;;-1.80;99.90;;;;;;5034879;28;20128;-71
2022/03/04 00:12:49;;;;;;;21.45;12.32;;;-1.80;99.90;;;;;;5034763;28;20507;-71
2022/03/04 00:15:16;;;;;;;22.73;13.30;;;-1.90;99.90;;;;;;5051403;28;20041;-71
2022/03/04 00:17:47;;;;;;;22.65;13.40;;;-1.90;99.90;;;;;;5052792;28;20063;-71
2022/03/04 00:20:19;;;;;;;18.85;12.57;;;-1.90;99.90;;;;;;5032578;28;20120;-71
2022/03/04 00:22:46;;;;;;;21.67;14.00;;;-1.90;99.90;;;;;;5032329;28;20098;-72
2022/03/04 00:25:19;;;;;;;22.35;14.43;;;-2.00;99.90;;;;;;5015644;28;20559;-72
2022/03/04 00:27:46;;;;;;;23.88;14.57;;;-2.00;99.90;;;;;;5035580;28;20448;-71
2022/03/04 00:30:13;;;;;;;21.52;13.77;;;-2.00;99.90;;;;;;5018257;28;20049;-71
2022/03/04 00:32:40;;;;;;;20.25;12.75;;;-2.10;99.90;;;;;;5052132;28;20068;-69
2022/03/04 00:35:13;;;;;;;25.40;14.00;;;-2.10;99.90;;;;;;5052450;28;20455;-72
2022/03/04 00:37:40;;;;;;;23.48;12.82;;;-2.20;99.90;;;;;;5034615;28;20147;-71
2022/03/04 00:40:14;;;;;;;23.17;11.93;;;-2.20;99.90;;;;;;5051998;28;20123;-70
2022/03/04 00:42:46;;;;;;;20.70;12.57;;;-2.20;99.90;;;;;;5050986;28;20131;-71
2022/03/04 00:45:17;;;;;;;21.17;12.05;;;-2.20;99.90;;;;;;5051720;28;20060;-70
2022/03/04 00:47:49;;;;;;;18.05;11.95;;;-2.20;99.90;;;;;;5030270;28;20033;-71
2022/03/04 00:50:16;;;;;;;24.52;12.73;;;-2.20;99.90;;;;;;5052049;28;20112;-71
2022/03/04 00:52:48;;;;;;;20.75;13.23;;;-2.20;99.90;;;;;;5051698;28;20120;-70
2022/03/04 00:55:19;;;;;;;22.48;12.38;;;-2.20;99.90;;;;;;5034030;28;20128;-71
2022/03/04 00:57:51;;;;;;;25.25;12.55;;;-2.20;99.90;;;;;;5034033;28;20148;-71
2022/03/04 01:00:23;;;;;;;24.48;13.77;;;-2.30;99.90;;;;;;5033960;28;20068;-71
2022/03/04 01:02:55;;;;;;;22.20;12.25;;;-2.30;99.90;;;;;;5034252;28;20087;-71
2022/03/04 01:05:26;;;;;;;21.75;12.50;;;-2.30;99.90;;;;;;5051562;28;20463;-71
2022/03/04 01:07:53;;;;;;;21.38;12.02;;;-2.30;99.90;;;;;;5033417;28;20072;-72
2022/03/04 01:10:25;;;;;;;23.27;13.98;;;-2.30;99.90;;;;;;5033747;28;20045;-70
2022/03/04 01:12:57;;;;;;;21.40;13.13;;;-2.30;99.90;;;;;;5040543;28;20120;-71
2022/03/04 01:15:29;;;;;;;20.33;12.18;;;-2.40;99.90;;;;;;5041212;28;20555;-71
2022/03/04 01:18:01;;;;;;;23.65;13.27;;;-2.40;99.90;;;;;;5032160;28;20488;-71
2022/03/04 01:20:29;;;;;;;21.70;12.40;;;-2.40;99.90;;;;;;5033965;28;20052;-71
2022/03/04 01:23:01;;;;;;;23.00;12.98;;;-2.40;99.90;;;;;;5038518;28;20144;-71
2022/03/04 01:25:28;;;;;;;25.55;12.60;;;-2.40;99.90;;;;;;5058539;28;20115;-71
2022/03/04 01:27:55;;;;;;;23.67;13.00;;;-2.50;99.90;;;;;;5051364;28;20065;-70
2022/03/04 01:30:27;;;;;;;20.38;11.52;;;-2.50;99.90;;;;;;5051015;28;20041;-71
2022/03/04 01:32:59;;;;;;;23.25;12.65;;;-2.50;99.90;;;;;;5017743;28;20115;-71
2022/03/04 01:35:30;;;;;;;21.20;12.35;;;-2.50;99.90;;;;;;5034014;28;20043;-71
2022/03/04 01:38:03;;;;;;;22.45;13.80;;;-2.50;99.90;;;;;;5051696;28;20459;-70
2022/03/04 01:40:35;;;;;;;22.63;12.07;;;-2.60;99.90;;;;;;5051480;28;20033;-70
2022/03/04 01:43:06;;;;;;;22.08;13.38;;;-2.60;99.90;;;;;;5031229;28;20115;-71
2022/03/04 01:45:38;;;;;;;22.73;13.75;;;-2.60;99.90;;;;;;5030816;28;20037;-71
2022/03/04 01:48:06;;;;;;;21.27;12.82;;;-2.70;99.90;;;;;;5048587;28;20033;-71
2022/03/04 01:50:38;;;;;;;22.50;13.40;;;-2.70;99.90;;;;;;5064384;28;20052;-71
2022/03/04 01:53:09;;;;;;;23.20;13.70;;;-2.70;99.90;;;;;;5063398;28;20127;-71
2022/03/04 01:55:41;;;;;;;23.60;11.65;;;-2.70;99.90;;;;;;5048241;28;20051;-71
2022/03/04 01:58:13;;;;;;;23.30;13.25;;;-2.80;99.90;;;;;;5049354;28;20060;-72
2022/03/04 02:00:45;;;;;;;22.05;13.02;;;-2.80;99.90;;;;;;5032915;28;20072;-71
2022/03/04 02:03:16;;;;;;;23.63;13.50;;;-2.90;99.90;;;;;;5035759;28;20440;-70
2022/03/04 02:05:48;;;;;;;23.83;13.93;;;-2.80;99.90;;;;;;5047762;28;20098;-71
2022/03/04 02:08:15;;;;;;;21.23;12.88;;;-2.90;99.90;;;;;;5078269;28;20036;-71
2022/03/04 02:10:42;;;;;;;24.65;12.60;;;-2.90;99.90;;;;;;5047649;28;20118;-71
2022/03/04 02:13:09;;;;;;;24.73;13.05;;;-2.90;99.90;;;;;;5029903;28;20073;-71
2022/03/04 02:15:45;;;;;;;20.67;12.43;;;-3.00;99.90;;;;;;5047887;28;20048;-71
2022/03/04 02:18:18;;;;;;;22.55;12.93;;;-3.00;99.90;;;;;;5030044;28;20051;-71
2022/03/04 02:20:52;;;;;;;22.65;12.35;;;-3.00;99.90;;;;;;5031780;28;20407;-71
2022/03/04 02:23:24;;;;;;;22.88;12.95;;;-3.00;99.90;;;;;;5047915;28;20548;-72
2022/03/04 02:25:52;;;;;;;22.45;13.02;;;-3.00;99.90;;;;;;5015541;28;20044;-70
2022/03/04 02:28:24;;;;;;;20.75;12.07;;;-3.10;99.90;;;;;;5032689;28;20147;-72
2022/03/04 02:30:55;;;;;;;21.35;13.25;;;-3.10;99.90;;;;;;5032883;28;20033;-71
2022/03/04 02:33:27;;;;;;;23.67;13.75;;;-3.10;99.90;;;;;;5031840;28;20041;-72
2022/03/04 02:35:59;;;;;;;22.95;13.93;;;-3.10;99.90;;;;;;5050216;28;20116;-71
2022/03/04 02:38:31;;;;;;;26.67;15.05;;;-3.10;99.90;;;;;;5015913;28;20144;-71
2022/03/04 02:41:03;;;;;;;27.45;14.63;;;-3.20;99.90;;;;;;5032275;28;20144;-70
2022/03/04 02:43:35;;;;;;;25.88;15.52;;;-3.20;99.90;;;;;;5053880;28;20500;-70
2022/03/04 02:46:07;;;;;;;28.20;14.00;;;-3.20;99.90;;;;;;5039142;28;20499;-70
2022/03/04 02:48:34;;;;;;;27.38;14.93;;;-3.20;99.90;;;;;;5056583;28;20398;-71
2022/03/04 02:51:06;;;;;;;24.83;14.75;;;-3.20;99.90;;;;;;5056758;28;20467;-70
2022/03/04 02:53:38;;;;;;;25.92;14.75;;;-3.20;99.90;;;;;;5056348;28;20140;-71
2022/03/04 02:56:05;;;;;;;26.85;14.50;;;-3.30;99.90;;;;;;5039452;28;20072;-71
2022/03/04 02:58:37;;;;;;;28.50;15.02;;;-3.30;99.90;;;;;;5056878;28;20060;-71
2022/03/04 03:01:09;;;;;;;25.83;14.55;;;-3.30;99.90;;;;;;5056193;28;20045;-71
2022/03/04 03:03:41;;;;;;;25.10;13.13;;;-3.30;99.90;;;;;;5056334;28;20478;-71
2022/03/04 03:06:13;;;;;;;25.95;13.82;;;-3.40;99.90;;;;;;5056611;28;20125;-71
2022/03/04 03:08:45;;;;;;;25.92;14.75;;;-3.50;99.90;;;;;;5038806;28;20060;-71
2022/03/04 03:11:17;;;;;;;21.58;13.00;;;-3.50;99.90;;;;;;5056553;28;20496;-71
2022/03/04 03:13:48;;;;;;;24.02;13.02;;;-3.50;99.90;;;;;;5054202;28;20145;-71
2022/03/04 03:16:15;;;;;;;22.00;12.73;;;-3.50;99.90;;;;;;5056200;28;20072;-71
2022/03/04 03:18:47;;;;;;;23.40;13.18;;;-3.50;99.90;;;;;;5056488;28;20068;-71
2022/03/04 03:21:14;;;;;;;30.48;14.68;;;-3.40;99.90;;;;;;5038772;28;20088;-71
2022/03/04 03:23:47;;;;;;;23.67;13.52;;;-3.50;99.90;;;;;;5055961;28;20041;-70
2022/03/04 03:26:19;;;;;;;25.45;12.43;;;-3.50;99.90;;;;;;5039540;28;20117;-71
2022/03/04 03:28:51;;;;;;;27.00;13.75;;;-3.50;99.90;;;;;;5038628;28;20534;-71
2022/03/04 03:31:23;;;;;;;23.38;14.57;;;-3.60;99.90;;;;;;5038869;28;20069;-71
2022/03/04 03:33:55;;;;;;;23.65;14.02;;;-3.60;99.90;;;;;;5038259;28;20450;-71
2022/03/04 03:36:27;;;;;;;24.17;13.25;;;-3.60;99.90;;;;;;5038658;28;20043;-71
2022/03/04 03:38:59;;;;;;;24.65;13.40;;;-3.60;99.90;;;;;;5038254;28;20135;-71
2022/03/04 03:41:30;;;;;;;22.48;12.82;;;-3.60;99.90;;;;;;5023155;28;20131;-71
2022/03/04 03:43:57;;;;;;;23.52;13.48;;;-3.60;99.90;;;;;;5038418;28;20403;-70
2022/03/04 03:46:29;;;;;;;22.83;13.40;;;-3.60;99.90;;;;;;5038483;28;20041;-72
2022/03/04 03:49:01;;;;;;;21.42;13.27;;;-3.60;99.90;;;;;;5039460;28;20130;-71
2022/03/04 03:51:27;;;;;;;23.27;13.30;;;-3.60;99.90;;;;;;5038185;28;20479;-71
2022/03/04 03:54:00;;;;;;;27.52;14.45;;;-3.60;99.90;;;;;;5052762;28;20041;-71
2022/03/04 03:56:32;;;;;;;24.40;13.88;;;-3.70;99.90;;;;;;5016669;28;20136;-71
2022/03/04 03:59:03;;;;;;;25.25;14.07;;;-3.70;99.90;;;;;;5028471;28;20052;-71
2022/03/04 04:01:36;;;;;;;21.38;12.88;;;-3.70;99.90;;;;;;5036176;28;20048;-70
2022/03/04 04:04:03;;;;;;;24.13;13.00;;;-3.70;99.90;;;;;;5034440;28;20052;-71
2022/03/04 04:06:35;;;;;;;29.02;13.80;;;-3.70;99.90;;;;;;5035724;28;20453;-71
2022/03/04 04:09:02;;;;;;;25.70;14.02;;;-3.80;99.90;;;;;;5052837;28;20041;-71
2022/03/04 04:11:35;;;;;;;24.95;13.48;;;-3.80;99.90;;;;;;5053185;28;20076;-71
2022/03/04 04:14:09;;;;;;;18.23;10.30;;;-3.80;99.90;;;;;;5052457;28;20850;-71
2022/03/04 04:16:40;;;;;;;22.60;13.50;;;-3.80;99.90;;;;;;5039740;28;20116;-71
2022/03/04 04:19:12;;;;;;;30.00;13.80;;;-3.80;99.90;;;;;;5036557;28;20075;-71
2022/03/04 04:21:44;;;;;;;26.20;13.80;;;-3.80;99.90;;;;;;5019466;28;20152;-71
2022/03/04 04:24:11;;;;;;;24.98;12.85;;;-3.90;99.90;;;;;;5052644;28;20124;-71
2022/03/04 04:26:43;;;;;;;22.05;12.27;;;-3.90;99.90;;;;;;5019418;28;20084;-71
2022/03/04 04:29:15;;;;;;;25.02;13.63;;;-3.90;99.90;;;;;;5053351;28;20037;-71
2022/03/04 04:31:47;;;;;;;22.08;13.15;;;-3.90;99.90;;;;;;5019539;28;20077;-70
2022/03/04 04:34:19;;;;;;;24.05;12.73;;;-3.90;99.90;;;;;;5034310;28;20135;-72
2022/03/04 04:36:50;;;;;;;25.98;14.07;;;-3.90;99.90;;;;;;5035175;28;20095;-72
2022/03/04 04:39:17;;;;;;;26.20;14.05;;;-3.90;99.90;;;;;;5052973;28;20458;-71
2022/03/04 04:41:49;;;;;;;23.67;14.57;;;-3.90;99.90;;;;;;5053094;28;20069;-71
2022/03/04 04:44:21;;;;;;;27.33;14.73;;;-3.90;99.90;;;;;;5035326;28;20086;-71
2022/03/04 04:46:52;;;;;;;22.88;13.93;;;-4.00;99.90;;;;;;5035874;28;20045;-71
2022/03/04 04:49:19;;;;;;;26.02;14.88;;;-4.00;99.90;;;;;;5018264;28;20069;-72
2022/03/04 04:51:51;;;;;;;23.50;13.52;;;-4.00;99.90;;;;;;5051997;28;20037;-71
2022/03/04 04:54:23;;;;;;;26.27;13.77;;;-4.10;99.90;;;;;;5051612;28;20120;-71
2022/03/04 04:56:49;;;;;;;26.17;14.35;;;-4.10;99.90;;;;;;5034182;28;20045;-71
2022/03/04 04:59:16;;;;;;;22.92;13.57;;;-4.10;99.90;;;;;;5051825;28;20567;-72
2022/03/04 05:01:48;;;;;;;25.65;15.13;;;-4.10;99.90;;;;;;5034904;28;20037;-71
2022/03/04 05:04:20;;;;;;;24.65;14.48;;;-4.10;99.90;;;;;;5017753;28;20041;-71
2022/03/04 05:06:52;;;;;;;31.45;15.20;;;-4.10;99.90;;;;;;5033982;28;20131;-71
2022/03/04 05:09:24;;;;;;;26.67;14.60;;;-4.10;99.90;;;;;;5017994;28;20069;-71
2022/03/04 05:11:50;;;;;;;30.50;16.08;;;-4.10;99.90;;;;;;5051637;28;20468;-71
2022/03/04 05:14:22;;;;;;;39.65;19.38;;;-4.20;99.90;;;;;;5025759;28;20051;-71
2022/03/04 05:16:54;;;;;;;43.58;20.35;;;-4.20;99.90;;;;;;5044671;28;20061;-70
2022/03/04 05:19:21;;;;;;;43.03;21.75;;;-4.20;99.90;;;;;;5058568;28;20053;-71
2022/03/04 05:21:52;;;;;;;36.90;19.10;;;-4.20;99.90;;;;;;5039742;28;20045;-71
2022/03/04 05:24:24;;;;;;;35.50;18.25;;;-4.20;99.90;;;;;;5044035;28;20120;-72
2022/03/04 05:26:56;;;;;;;34.80;16.80;;;-4.30;99.90;;;;;;5021982;28;20137;-71
2022/03/04 05:29:28;;;;;;;26.23;15.50;;;-4.30;99.90;;;;;;5051757;28;20116;-71
2022/03/04 05:32:00;;;;;;;29.85;16.55;;;-4.30;99.90;;;;;;5051439;28;20555;-71
2022/03/04 05:34:32;;;;;;;29.20;14.75;;;-4.30;99.90;;;;;;5020870;28;20044;-71
2022/03/04 05:37:04;;;;;;;26.30;15.23;;;-4.30;99.90;;;;;;5051754;28;20136;-71
2022/03/04 05:39:36;;;;;;;25.17;14.25;;;-4.30;99.90;;;;;;5042285;28;20386;-71
2022/03/04 05:42:08;;;;;;;26.40;15.10;;;-4.40;99.90;;;;;;5051545;28;20514;-71
2022/03/04 05:44:40;;;;;;;30.13;14.55;;;-4.40;99.90;;;;;;5039555;28;20037;-71
2022/03/04 05:47:12;;;;;;;26.80;13.43;;;-4.30;99.90;;;;;;5051781;28;20500;-72
2022/03/04 05:49:39;;;;;;;27.88;14.63;;;-4.40;99.90;;;;;;5067056;28;20162;-71
2022/03/04 05:52:06;;;;;;;26.63;14.77;;;-4.40;99.90;;;;;;5031135;28;20061;-71
2022/03/04 05:54:38;;;;;;;22.90;12.00;;;-4.40;99.90;;;;;;5037496;28;20511;-72
2022/03/04 05:57:10;;;;;;;29.08;14.13;;;-4.40;99.90;;;;;;5026188;28;20689;-71
2022/03/04 05:59:42;;;;;;;28.30;15.43;;;-4.40;99.90;;;;;;5034114;28;20037;-71
2022/03/04 06:02:14;;;;;;;28.52;14.48;;;-4.40;99.90;;;;;;5051326;28;20393;-71
2022/03/04 06:04:45;;;;;;;26.45;14.10;;;-4.40;99.90;;;;;;5041045;28;20075;-71
2022/03/04 06:07:17;;;;;;;27.90;14.50;;;-4.50;99.90;;;;;;5066956;28;20041;-71
2022/03/04 06:09:49;;;;;;;34.17;15.32;;;-4.50;99.90;;;;;;5066197;28;20116;-72
2022/03/04 06:12:21;;;;;;;29.27;15.98;;;-4.50;99.90;;;;;;5033361;28;20075;-71
2022/03/04 06:14:48;;;;;;;29.75;16.38;;;-4.50;99.90;;;;;;5043359;28;20076;-71
2022/03/04 06:17:19;;;;;;;29.42;16.27;;;-4.50;99.90;;;;;;5036574;28;20140;-70
2022/03/04 06:19:51;;;;;;;29.83;16.13;;;-4.50;99.90;;;;;;5038670;28;20076;-70
2022/03/04 06:22:20;;;;;;;36.17;19.15;;;-4.50;99.90;;;;;;5021801;28;20040;-72
2022/03/04 06:24:52;;;;;;;;;;;-4.50;99.90;;;;;;5033906;28;20091;-71
2022/03/04 06:27:18;;;;;;;32.00;16.23;;;-4.50;99.90;;;;;;5034164;28;19959;-73
2022/03/04 06:29:45;;;;;;;35.25;18.48;;;-4.50;99.90;;;;;;5033276;28;20148;-71
2022/03/04 06:32:17;;;;;;;30.17;16.55;;;-4.40;99.90;;;;;;5032534;28;20045;-71
2022/03/04 06:34:44;;;;;;;30.13;15.20;;;-4.40;99.90;;;;;;5032840;28;20515;-71
2022/03/04 06:37:15;;;;;;;28.55;14.73;;;-4.40;99.90;;;;;;5032541;28;20135;-72
2022/03/04 06:39:47;;;;;;;29.45;15.55;;;-4.40;99.90;;;;;;5050245;28;20103;-70
2022/03/04 06:42:19;;;;;;;29.65;16.00;;;-4.40;99.90;;;;;;5050305;28;20049;-70
2022/03/04 06:44:46;;;;;;;28.65;15.45;;;-4.40;99.90;;;;;;5050188;28;20040;-72
2022/03/04 06:47:18;;;;;;;28.42;14.82;;;-4.40;99.90;;;;;;5033850;28;20033;-71
2022/03/04 06:49:49;;;;;;;29.35;15.13;;;-4.30;99.90;;;;;;5027868;28;20511;-71
2022/03/04 06:52:22;;;;;;;29.10;17.08;;;-4.30;99.90;;;;;;5046428;28;20039;-71
2022/03/04 06:54:49;;;;;;;29.13;14.48;;;-4.30;99.90;;;;;;5048917;28;20055;-71
2022/03/04 06:57:16;;;;;;;33.53;18.30;;;-4.30;99.90;;;;;;5031863;28;20128;-70
2022/03/04 06:59:48;;;;;;;29.85;17.73;;;-4.20;99.90;;;;;;5033111;28;20116;-71
2022/03/04 07:02:20;;;;;;;28.10;18.03;;;-4.10;99.90;;;;;;5047657;28;20120;-70
2022/03/04 07:04:52;;;;;;;28.70;18.15;;;-4.10;99.90;;;;;;5029931;28;20327;-71
2022/03/04 07:07:24;;;;;;;29.98;17.27;;;-4.00;99.90;;;;;;5064349;28;20873;-71
2022/03/04 07:09:55;;;;;;;32.42;17.27;;;-4.00;99.90;;;;;;5043546;28;20411;-71
2022/03/04 07:12:27;;;;;;;29.73;17.45;;;-4.00;99.90;;;;;;5030493;28;20037;-71
2022/03/04 07:14:59;;;;;;;31.05;16.88;;;-3.90;99.90;;;;;;5035566;28;20452;-71
2022/03/04 07:17:31;;;;;;;30.98;16.08;;;-3.80;99.90;;;;;;5032296;28;20049;-71
2022/03/04 07:20:05;;;;;;;32.33;18.05;;;-3.80;99.90;;;;;;5065392;28;20134;-71
2022/03/04 07:22:32;;;;;;;37.78;21.40;;;-3.70;99.90;;;;;;5052747;28;20183;-71
2022/03/04 07:25:09;;;;;;;41.22;21.02;;;-3.60;99.90;;;;;;5016285;28;20041;-71
2022/03/04 07:27:42;;;;;;;36.72;19.52;;;-3.60;99.90;;;;;;5032248;28;20127;-71
2022/03/04 07:30:16;;;;;;;36.60;20.90;;;-3.50;99.90;;;;;;5053146;28;20045;-70
2022/03/04 07:32:49;;;;;;;33.50;20.08;;;-3.40;99.90;;;;;;5048403;28;20068;-70
2022/03/04 07:35:20;;;;;;;37.50;21.33;;;-3.30;99.90;;;;;;5067324;28;20037;-71
2022/03/04 07:37:47;;;;;;;33.95;18.48;;;-3.30;99.90;;;;;;5053209;28;20045;-71
2022/03/04 07:40:19;;;;;;;38.92;22.35;;;-3.20;99.90;;;;;;5033512;28;20848;-71
2022/03/04 07:42:51;;;;;;;47.47;25.23;;;-3.10;99.90;;;;;;5041241;28;20119;-71
2022/03/04 07:45:25;;;;;;;38.70;20.52;;;-3.00;99.90;;;;;;5037843;28;20076;-71
2022/03/04 07:47:51;;;;;;;40.17;22.63;;;-2.90;99.90;;;;;;5053105;28;20041;-71
2022/03/04 07:50:18;;;;;;;40.58;20.92;;;-2.80;99.90;;;;;;5052405;28;20112;-71
2022/03/04 07:52:50;;;;;;;42.63;21.95;;;-2.70;99.90;;;;;;5026882;28;20040;-71
2022/03/04 07:55:18;;;;;;;33.35;20.33;;;-2.60;99.90;;;;;;5053141;28;20115;-70
2022/03/04 07:57:50;;;;;;;40.72;20.63;;;-2.40;99.90;;;;;;5034241;28;20041;-70
2022/03/04 08:00:26;;;;;;;31.17;17.05;;;-2.30;99.90;;;;;;5057237;28;20045;-70
2022/03/04 08:02:59;;;;;;;32.05;18.25;;;-2.20;99.90;;;;;;5052501;28;20411;-71
2022/03/04 08:05:31;;;;;;;23.60;13.10;;;-2.10;99.90;;;;;;5052009;28;20036;-71
2022/03/04 08:08:03;;;;;;;33.95;17.13;;;-1.80;99.90;;;;;;5053758;28;20091;-71
2022/03/04 08:10:34;;;;;;;36.08;18.95;;;-1.60;99.90;;;;;;5025264;28;20492;-71
2022/03/04 08:13:06;;;;;;;31.20;17.00;;;-1.40;99.90;;;;;;5052049;28;20041;-71
2022/03/04 08:15:33;;;;;;;33.67;17.85;;;-1.30;99.90;;;;;;5032262;28;20037;-72
2022/03/04 08:18:05;;;;;;;34.45;19.02;;;-1.20;99.90;;;;;;5061925;28;20495;-71
2022/03/04 08:20:33;;;;;;;29.88;17.13;;;-1.20;99.90;;;;;;5029127;28;20136;-71
2022/03/04 08:23:05;;;;;;;35.95;19.52;;;-1.10;99.90;;;;;;5057711;28;20131;-71
2022/03/04 08:25:38;;;;;;;37.30;18.88;;;-1.00;99.90;;;;;;5042689;28;20051;-72
2022/03/04 08:28:10;;;;;;;36.05;19.60;;;-0.90;99.90;;;;;;5033600;28;20041;-71
2022/03/04 08:30:42;;;;;;;37.42;18.38;;;-0.80;99.90;;;;;;5058193;28;20518;-72
2022/03/04 08:33:14;;;;;;;36.13;18.85;;;-0.70;99.90;;;;;;5043125;28;20041;-72
2022/03/04 08:35:46;;;;;;;54.25;26.23;;;-0.70;99.90;;;;;;5038126;28;20501;-72
2022/03/04 08:38:18;;;;;;;60.65;28.75;;;-0.60;99.90;;;;;;5038564;28;20041;-71
2022/03/04 08:40:46;;;;;;;38.25;20.08;;;-0.50;99.90;;;;;;5074183;28;20061;-71
2022/03/04 08:43:20;;;;;;;35.42;19.45;;;-0.40;99.90;;;;;;5061271;28;20557;-71
2022/03/04 08:45:47;;;;;;;30.85;17.15;;;-0.30;99.90;;;;;;5052052;28;20139;-72
2022/03/04 08:48:15;;;;;;;32.70;17.58;;;-0.20;99.90;;;;;;5033245;28;20415;-72
2022/03/04 08:50:46;;;;;;;32.08;17.05;;;0.00;99.90;;;;;;5030819;28;20124;-71
2022/03/04 08:53:18;;;;;;;30.58;17.90;;;0.10;99.90;;;;;;5035186;28;20090;-72
2022/03/04 08:55:46;;;;;;;31.75;17.02;;;0.20;99.90;;;;;;5048451;28;20441;-72
2022/03/04 08:58:18;;;;;;;30.05;17.35;;;0.40;99.90;;;;;;5026541;28;20037;-71
2022/03/04 09:00:45;;;;;;;31.40;17.85;;;0.50;99.90;;;;;;5051981;28;20071;-71
2022/03/04 09:03:12;;;;;;;30.58;17.35;;;0.60;99.90;;;;;;5018806;28;20076;-72
2022/03/04 09:05:39;;;;;;;33.53;17.15;;;0.70;99.90;;;;;;5065803;28;20036;-71
2022/03/04 09:08:11;;;;;;;32.47;17.92;;;0.90;99.90;;;;;;5039081;28;20129;-72
2022/03/04 09:10:38;;;;;;;35.03;17.13;;;1.00;99.90;;;;;;5043467;28;20053;-71
2022/03/04 09:13:10;;;;;;;31.63;17.65;;;1.10;99.90;;;;;;5029588;28;20040;-73
2022/03/04 09:15:37;;;;;;;31.13;17.88;;;1.20;99.90;;;;;;5037779;28;20555;-72
2022/03/04 09:18:04;;;;;;;32.17;18.60;;;1.30;99.90;;;;;;5027793;28;20543;-72
2022/03/04 09:20:36;;;;;;;28.63;16.42;;;1.40;99.90;;;;;;5036061;28;20063;-72
2022/03/04 09:23:08;;;;;;;29.52;16.05;;;1.50;99.90;;;;;;5035838;28;20033;-72
2022/03/04 09:25:40;;;;;;;30.30;17.23;;;1.60;99.90;;;;;;5053127;28;20045;-73
2022/03/04 09:28:11;;;;;;;29.50;17.63;;;1.70;99.90;;;;;;5031479;28;20496;-73
2022/03/04 09:30:43;;;;;;;26.92;15.93;;;1.80;99.90;;;;;;5054957;28;20120;-72
2022/03/04 09:33:11;;;;;;;28.33;13.55;;;2.00;99.90;;;;;;5030827;28;20115;-73
2022/03/04 09:35:38;;;;;;;25.42;14.52;;;2.10;99.90;;;;;;5035775;28;20076;-72
2022/03/04 09:38:10;;;;;;;24.27;14.23;;;2.20;99.90;;;;;;5034145;28;20076;-73
2022/03/04 09:40:42;;;;;;;33.13;15.45;;;2.40;99.90;;;;;;5038067;28;20123;-72
2022/03/04 09:43:17;;;;;;;26.90;13.57;;;2.50;99.90;;;;;;5029801;28;20182;-72
2022/03/04 09:45:49;;;;;;;26.08;14.70;;;2.60;99.90;;;;;;5017077;28;20405;-71
2022/03/04 09:48:17;;;;;;;25.25;15.20;;;2.80;99.90;;;;;;5038461;28;20083;-73
2022/03/04 09:50:46;;;;;;;25.75;13.65;;;2.90;99.90;;;;;;5036424;28;20443;-72
2022/03/04 09:53:19;;;;;;;27.95;14.55;;;3.00;99.60;;;;;;5036230;28;20496;-72
2022/03/04 09:55:50;;;;;;;26.42;15.45;;;3.10;98.70;;;;;;5023635;28;20139;-73
2022/03/04 09:58:22;;;;;;;26.77;15.27;;;3.20;98.20;;;;;;5033463;28;20527;-73
2022/03/04 10:00:55;;;;;;;25.33;14.30;;;3.30;97.60;;;;;;5052229;28;20740;-72
2022/03/04 10:03:29;;;;;;;25.13;15.55;;;3.40;97.00;;;;;;5034880;28;20041;-73
2022/03/04 10:05:58;;;;;;;25.70;14.95;;;3.50;96.10;;;;;;5046671;28;20084;-73
2022/03/04 10:08:36;;;;;;;29.83;17.48;;;3.60;95.00;;;;;;5032904;28;20067;-73
2022/03/04 10:11:09;;;;;;;29.73;16.05;;;3.60;95.50;;;;;;5049427;28;20037;-74
2022/03/04 10:13:43;;;;;;;29.83;15.95;;;3.70;94.70;;;;;;5043470;28;20033;-74
2022/03/04 10:16:25;;;;;;;28.52;15.73;;;3.80;94.30;;;;;;5017722;28;20118;-73
2022/03/04 10:19:04;;;;;;;24.83;14.27;;;3.90;93.40;;;;;;5014584;28;20127;-74
2022/03/04 10:21:56;;;;;;;24.90;14.70;;;4.00;92.90;;;;;;5047779;28;20098;-72
2022/03/04 10:24:32;;;;;;;27.25;15.00;;;4.10;92.70;;;;;;5026030;28;20110;-72
2022/03/04 10:27:09;;;;;;;30.15;14.80;;;4.20;91.90;;;;;;5033708;28;20064;-72
2022/03/04 10:29:48;;;;;;;24.25;14.52;;;4.30;90.40;;;;;;5068460;28;20037;-72
2022/03/04 10:32:26;;;;;;;23.05;13.75;;;4.60;91.00;;;;;;5052613;28;20091;-73
2022/03/04 10:35:05;;;;;;;24.80;13.65;;;4.60;89.40;;;;;;5043042;28;20084;-72
2022/03/04 10:37:54;;;;;;;24.27;14.48;;;4.70;90.00;;;;;;5038939;28;20107;-73
2022/03/04 10:40:42;;;;;;;24.58;13.52;;;4.80;89.10;;;;;;5030016;28;20487;-73
2022/03/04 10:43:23;;;;;;;21.30;12.30;;;4.80;86.00;;;;;;5043649;28;20143;-72
2022/03/04 10:46:04;;;;;;;26.75;14.25;;;4.90;81.90;;;;;;5035766;28;20061;-73
2022/03/04 10:48:36;;;;;;;27.58;15.18;;;5.00;84.40;;;;;;5018835;28;20136;-71
2022/03/04 10:51:05;;;;;;;26.08;14.35;;;5.10;81.90;;;;;;5041639;28;20435;-72
2022/03/04 10:53:37;;;;;;;25.10;13.52;;;5.10;80.30;;;;;;5054461;28;20128;-73
2022/03/04 10:56:10;;;;;;;25.40;13.77;;;5.10;80.00;;;;;;5051429;28;20114;-72
2022/03/04 10:58:40;;;;;;;22.80;14.57;;;5.10;79.40;;;;;;5048134;28;20120;-72
2022/03/04 11:01:19;;;;;;;26.70;13.90;;;5.10;78.50;;;;;;5054869;28;20045;-73
2022/03/04 11:03:47;;;;;;;24.75;14.68;;;5.20;79.00;;;;;;5048749;28;20126;-72
2022/03/04 11:06:16;;;;;;;22.42;13.85;;;5.30;77.20;;;;;;5042379;28;20114;-72
2022/03/04 11:08:44;;;;;;;18.52;12.18;;;5.30;77.90;;;;;;5037193;28;20062;-72
2022/03/04 11:11:12;;;;;;;24.30;13.27;;;5.30;74.90;;;;;;5042487;28;20090;-72
2022/03/04 11:13:44;;;;;;;23.45;14.27;;;5.40;75.20;;;;;;5064584;28;20053;-72
2022/03/04 11:16:16;;;;;;;22.20;13.65;;;5.30;75.60;;;;;;5034619;28;20044;-72
2022/03/04 11:18:48;;;;;;;22.42;13.20;;;5.50;76.60;;;;;;5036143;28;20132;-72
2022/03/04 11:21:20;;;;;;;22.80;12.90;;;5.50;76.70;;;;;;5059902;28;20123;-72
2022/03/04 11:23:47;;;;;;;20.67;12.50;;;5.60;76.10;;;;;;5029369;28;20068;-71
2022/03/04 11:26:21;;;;;;;23.20;13.07;;;5.80;75.60;;;;;;5059855;28;20037;-71
2022/03/04 11:28:54;;;;;;;22.85;13.88;;;5.90;75.40;;;;;;5036663;28;20078;-72
2022/03/04 11:31:28;;;;;;;24.35;14.85;;;6.00;74.10;;;;;;5000929;28;20042;-72
2022/03/04 11:34:02;;;;;;;24.35;14.60;;;6.00;72.10;;;;;;5016644;28;20124;-72
2022/03/04 11:36:36;;;;;;;23.45;13.82;;;6.10;73.20;;;;;;5034208;28;20037;-72
2022/03/04 11:39:15;;;;;;;21.65;13.82;;;6.20;71.50;;;;;;5016964;28;20132;-71
2022/03/04 11:41:47;;;;;;;25.50;13.85;;;6.20;70.40;;;;;;5050880;28;20034;-72
2022/03/04 11:44:19;;;;;;;22.73;13.75;;;6.30;71.80;;;;;;5032751;28;20484;-72
2022/03/04 11:47:00;;;;;;;19.92;12.10;;;6.30;72.30;;;;;;5041154;28;20124;-72
2022/03/04 11:49:47;;;;;;;18.98;12.60;;;6.40;71.20;;;;;;5038947;28;20106;-72
2022/03/04 11:52:21;;;;;;;22.67;14.32;;;6.50;70.30;;;;;;5035330;28;20759;-72
2022/03/04 11:54:52;;;;;;;23.02;12.93;;;6.50;69.50;;;;;;5043613;28;20495;-72
2022/03/04 11:57:33;;;;;;;23.50;12.63;;;6.60;70.00;;;;;;5051849;28;20079;-72
2022/03/04 12:00:16;;;;;;;21.90;12.40;;;6.60;70.10;;;;;;5035701;28;20037;-72
2022/03/04 12:02:43;;;;;;;22.88;12.98;;;6.70;70.00;;;;;;5040558;28;20060;-72
2022/03/04 12:05:19;;;;;;;22.20;13.98;;;6.80;67.80;;;;;;5048393;28;20045;-72
2022/03/04 12:08:07;;;;;;;21.77;14.20;;;6.80;69.10;;;;;;5044638;28;20124;-72
2022/03/04 12:10:53;;;;;;;29.73;14.88;;;6.80;68.20;;;;;;5053131;28;20454;-72
2022/03/04 12:13:27;;;;;;;25.55;14.50;;;6.90;70.80;;;;;;5019519;28;20045;-72
2022/03/04 12:16:03;;;;;;;27.17;14.45;;;7.00;70.40;;;;;;5024567;28;20132;-72
2022/03/04 12:18:35;;;;;;;23.20;13.63;;;7.00;68.00;;;;;;5031173;28;20138;-72
2022/03/04 12:21:15;;;;;;;18.00;11.63;;;7.10;66.40;;;;;;5052828;28;20111;-72
2022/03/04 12:23:50;;;;;;;20.88;12.80;;;7.10;64.00;;;;;;5052677;28;20088;-72
2022/03/04 12:26:31;;;;;;;21.52;12.80;;;7.10;63.70;;;;;;5036433;28;20037;-72
2022/03/04 12:29:13;;;;;;;22.83;14.45;;;7.10;63.20;;;;;;5049864;28;20037;-72
2022/03/04 12:31:48;;;;;;;24.73;15.18;;;7.20;65.60;;;;;;5052897;28;20045;-72
2022/03/04 12:34:19;;;;;;;23.98;14.00;;;7.20;65.60;;;;;;5052259;28;20045;-72
2022/03/04 12:36:53;;;;;;;21.65;13.05;;;7.30;65.40;;;;;;5035488;28;20047;-72
2022/03/04 12:39:24;;;;;;;24.02;12.93;;;7.40;63.40;;;;;;5035236;28;20041;-72
2022/03/04 12:41:56;;;;;;;22.55;13.55;;;7.40;61.50;;;;;;5048000;28;20128;-72
2022/03/04 12:44:28;;;;;;;20.98;13.07;;;7.40;63.40;;;;;;5034631;28;20072;-72
2022/03/04 12:46:59;;;;;;;20.85;12.50;;;7.50;61.10;;;;;;5032974;28;20040;-72
2022/03/04 12:49:33;;;;;;;23.83;12.70;;;7.50;60.10;;;;;;5068363;28;20040;-72
2022/03/04 12:52:04;;;;;;;21.83;13.57;;;7.60;61.70;;;;;;5052017;28;20052;-72